Bruni, Texas
Current Conditions -  °F | °C
As of 4:15 AM on Sunday 25 Jan 2015 (Local Time) from KHBV Reporting Station
Clear Clear  
Wind Chill: 41°   Ceiling: Unl
Heat Index: 45°   Visibility: 10mi
Dew Point: 35°   Wind: 7mph
Humidity: 66%   Direction: 220°SW
Pressure: 30.09"   Gusts: NA
Location:  27.43°N, 98.84°W
Report Text: KHBV 251015Z AUTO 22006KT 10SM CLR 07/01 A3009 RMK AO2 T00730014
Loading
Personal Weather Stations






























Interactive Weather Map New forecast layout! Learn more

10-Day Weather Forecast

Advertisements
Track Severe Weather on mobile